Terminal Aerodrome Forecast
Issued by NWS Salt Lake City, UT

Home | Current Version | Previous Version | Text Only | Print | Product List | Glossary On
Versions: 1 2 3 4 5 6 7 8 9 10 11 12 13 14
000
FTUS45 KSLC 271120
TAFCDC
TAF
KCDC 271120Z 2712/2812 VRB05KT P6SM SCT100
     FM271800 28007KT P6SM SCT080 BKN120
     FM280300 VRB04KT P6SM FEW080 SCT120=

USA.gov is the U.S. government's official web portal to all federal, state and local government web resources and services.